Time;durP1;ratioP1;P1;durP2;ratioP2;P2;SDS_P1;SDS_P2;PMS_P1;PMS_P2;Temp;Humidity;BMP_temperature;BMP_pressure;BME280_temperature;BME280_humidity;BME280_pressure;Samples;Min_cycle;Max_cycle;Signal;HPM_P1;HPM_P2
2021/03/25 00:00:27;;;;;;;52.75;21.52;;;12.50;86.30;;;;;;5049640;28;20462;-78
2021/03/25 00:02:56;;;;;;;42.85;20.13;;;12.60;86.60;;;;;;5057352;28;20047;-78
2021/03/25 00:05:24;;;;;;;43.00;20.25;;;12.60;86.50;;;;;;5055821;28;20055;-78
2021/03/25 00:07:49;;;;;;;38.08;18.25;;;12.60;86.50;;;;;;5055709;28;20028;-78
2021/03/25 00:10:19;;;;;;;38.53;18.05;;;12.60;86.50;;;;;;5056816;28;20108;-78
2021/03/25 00:12:45;;;;;;;32.53;17.20;;;12.60;86.80;;;;;;5055050;28;20082;-79
2021/03/25 00:15:11;;;;;;;34.00;17.10;;;12.60;86.90;;;;;;5055688;28;20025;-78
2021/03/25 00:17:37;;;;;;;32.38;17.33;;;12.50;87.00;;;;;;5051712;28;20124;-78
2021/03/25 00:20:09;;;;;;;31.77;16.15;;;12.50;87.20;;;;;;5055220;28;20108;-78
2021/03/25 00:22:35;;;;;;;39.17;16.95;;;12.50;87.30;;;;;;5054403;28;21657;-78
2021/03/25 00:25:01;;;;;;;29.60;15.90;;;12.50;87.30;;;;;;5051072;28;20533;-77
2021/03/25 00:27:26;;;;;;;43.00;17.40;;;12.50;87.10;;;;;;5055528;28;20056;-78
2021/03/25 00:29:52;;;;;;;41.47;17.10;;;12.50;87.20;;;;;;5051967;28;20048;-78
2021/03/25 00:32:17;;;;;;;42.25;17.00;;;12.50;87.20;;;;;;5054027;28;20067;-78
2021/03/25 00:34:43;;;;;;;36.85;17.20;;;12.50;87.10;;;;;;5053456;28;20071;-78
2021/03/25 00:37:08;;;;;;;33.83;16.55;;;12.50;87.00;;;;;;5050040;28;20074;-78
2021/03/25 00:39:34;;;;;;;34.70;16.77;;;12.40;86.70;;;;;;5055251;28;20078;-78
2021/03/25 00:42:00;;;;;;;37.67;16.33;;;12.40;86.60;;;;;;5051615;28;20025;-78
2021/03/25 00:44:25;;;;;;;39.78;17.23;;;12.40;86.60;;;;;;5054863;28;20029;-79
2021/03/25 00:46:51;;;;;;;34.05;17.60;;;12.40;86.80;;;;;;5056817;28;20033;-79
2021/03/25 00:49:16;;;;;;;34.22;16.77;;;12.40;86.70;;;;;;5045868;28;20028;-79
2021/03/25 00:51:42;;;;;;;39.72;17.50;;;12.40;86.70;;;;;;5058097;28;20610;-80
2021/03/25 00:54:08;;;;;;;32.88;18.55;;;12.30;86.80;;;;;;5055886;28;20483;-79
2021/03/25 00:56:37;;;;;;;34.80;17.17;;;12.30;87.00;;;;;;5055445;28;20032;-79
2021/03/25 00:59:02;;;;;;;36.90;16.55;;;12.30;87.30;;;;;;5055520;28;20161;-79
2021/03/25 01:01:28;;;;;;;37.00;16.15;;;12.30;87.30;;;;;;5056910;28;20099;-79
2021/03/25 01:03:54;;;;;;;30.17;16.40;;;12.40;87.40;;;;;;5057933;28;20499;-79
2021/03/25 01:06:19;;;;;;;35.67;16.67;;;12.40;87.40;;;;;;5067135;28;20033;-77
2021/03/25 01:08:45;;;;;;;32.03;16.98;;;12.40;87.30;;;;;;5054443;28;20029;-77
2021/03/25 01:11:23;;;;;;;35.90;17.15;;;12.40;87.20;;;;;;5055044;28;20507;-77
2021/03/25 01:13:51;;;;;;;36.33;17.42;;;12.40;87.30;;;;;;5051581;28;21443;-77
2021/03/25 01:16:35;;;;;;;36.65;17.02;;;12.40;87.50;;;;;;5056843;28;20136;-76
2021/03/25 01:19:04;;;;;;;38.85;17.50;;;12.30;87.40;;;;;;5069192;28;20044;-76
2021/03/25 01:21:30;;;;;;;39.55;17.27;;;12.30;87.70;;;;;;5069065;28;20025;-76
2021/03/25 01:23:56;;;;;;;37.13;18.73;;;12.30;87.80;;;;;;5055265;28;20033;-76
2021/03/25 01:26:22;;;;;;;32.13;16.77;;;12.30;87.80;;;;;;5054475;28;20039;-76
2021/03/25 01:28:47;;;;;;;35.03;17.80;;;12.20;88.00;;;;;;5059219;28;20035;-76
2021/03/25 01:31:13;;;;;;;42.22;18.85;;;12.10;88.10;;;;;;5057524;28;20047;-76
2021/03/25 01:33:39;;;;;;;37.10;18.42;;;12.20;88.20;;;;;;5058541;28;20115;-77
2021/03/25 01:36:05;;;;;;;42.72;18.15;;;12.10;88.20;;;;;;5056926;28;20098;-77
2021/03/25 01:38:31;;;;;;;34.63;17.08;;;12.10;88.20;;;;;;5057209;28;20029;-76
2021/03/25 01:40:59;;;;;;;35.28;16.67;;;12.10;88.40;;;;;;5056005;28;20060;-76
2021/03/25 01:43:41;;;;;;;30.85;16.30;;;12.10;88.40;;;;;;5057433;28;20329;-76
2021/03/25 01:46:15;;;;;;;38.65;17.88;;;12.10;88.40;;;;;;5067199;28;20057;-77
2021/03/25 01:48:44;;;;;;;37.97;16.92;;;12.10;88.30;;;;;;5057877;28;20063;-77
2021/03/25 01:51:31;;;;;;;38.50;17.85;;;12.10;88.40;;;;;;5056449;28;20035;-76
2021/03/25 01:54:12;;;;;;;36.58;17.58;;;12.10;88.50;;;;;;5056863;28;20021;-76
2021/03/25 01:57:07;;;;;;;37.88;17.95;;;12.10;88.60;;;;;;5057053;28;20795;-76
2021/03/25 01:59:46;;;;;;;44.08;18.38;;;12.10;88.70;;;;;;5056708;28;20032;-76
2021/03/25 02:02:30;;;;;;;42.00;18.33;;;12.00;88.50;;;;;;5056204;28;20035;-76
2021/03/25 02:05:20;;;;;;;35.90;17.42;;;12.00;88.60;;;;;;5056851;28;20133;-76
2021/03/25 02:08:03;;;;;;;37.05;19.20;;;11.90;89.00;;;;;;5056473;28;20032;-76
2021/03/25 02:10:53;;;;;;;35.03;17.33;;;11.90;89.20;;;;;;5056641;28;21937;-76
2021/03/25 02:13:39;;;;;;;34.22;17.30;;;11.90;89.70;;;;;;5057559;28;20120;-79
2021/03/25 02:16:34;;;;;;;41.50;18.55;;;11.90;89.50;;;;;;5073399;28;20036;-79
2021/03/25 02:19:24;;;;;;;38.95;17.48;;;11.90;89.70;;;;;;5050710;28;20060;-76
2021/03/25 02:22:01;;;;;;;37.95;17.52;;;11.90;89.70;;;;;;5055852;28;20035;-76
2021/03/25 02:24:35;;;;;;;36.10;17.52;;;11.90;89.90;;;;;;5059590;28;20035;-76
2021/03/25 02:27:39;;;;;;;31.63;16.40;;;12.00;89.90;;;;;;5056399;28;20036;-76
2021/03/25 02:30:11;;;;;;;37.22;16.83;;;12.00;89.30;;;;;;5051438;28;20085;-76
2021/03/25 02:32:50;;;;;;;30.63;16.45;;;12.00;88.70;;;;;;5057025;28;20531;-76
2021/03/25 02:35:24;;;;;;;36.47;17.63;;;12.00;88.70;;;;;;5055105;28;20029;-76
2021/03/25 02:38:04;;;;;;;38.38;18.45;;;12.10;88.90;;;;;;5055804;28;20041;-75
2021/03/25 02:40:52;;;;;;;38.40;17.83;;;12.00;89.30;;;;;;5056489;28;20530;-77
2021/03/25 02:43:34;;;;;;;36.63;18.42;;;12.00;89.30;;;;;;5057418;28;20097;-76
2021/03/25 02:46:24;;;;;;;35.03;17.83;;;12.10;89.50;;;;;;5057662;28;20068;-76
2021/03/25 02:48:53;;;;;;;40.00;17.88;;;12.10;89.80;;;;;;5055622;28;20031;-76
2021/03/25 02:51:30;;;;;;;35.05;17.27;;;12.10;89.60;;;;;;5055730;28;20119;-76
2021/03/25 02:53:56;;;;;;;34.85;18.52;;;12.10;89.70;;;;;;5054968;28;20090;-76
2021/03/25 02:56:32;;;;;;;41.25;17.45;;;12.10;89.60;;;;;;5056196;28;20131;-76
2021/03/25 02:59:09;;;;;;;34.75;18.70;;;12.10;89.60;;;;;;5053273;28;20032;-76
2021/03/25 03:01:42;;;;;;;38.55;19.08;;;12.20;89.70;;;;;;5056725;28;20025;-77
2021/03/25 03:04:21;;;;;;;40.95;19.67;;;12.10;89.70;;;;;;5055359;28;20049;-77
2021/03/25 03:06:51;;;;;;;45.70;21.08;;;12.20;89.90;;;;;;5058597;28;20032;-77
2021/03/25 03:09:43;;;;;;;41.72;21.20;;;12.10;90.00;;;;;;5055670;28;20494;-77
2021/03/25 03:12:15;;;;;;;40.53;20.58;;;12.10;90.10;;;;;;5058618;28;20037;-77
2021/03/25 03:14:48;;;;;;;38.65;20.27;;;12.10;90.10;;;;;;5054311;28;20091;-77
2021/03/25 03:17:31;;;;;;;40.50;21.02;;;12.10;90.20;;;;;;5053748;28;20119;-77
2021/03/25 03:20:25;;;;;;;47.60;19.60;;;12.10;90.40;;;;;;5054637;28;20036;-76
2021/03/25 03:22:53;;;;;;;41.20;20.42;;;12.20;90.40;;;;;;5058487;28;20040;-77
2021/03/25 03:25:22;;;;;;;47.92;20.23;;;12.20;90.40;;;;;;5058556;28;20020;-76
2021/03/25 03:28:04;;;;;;;41.17;19.80;;;12.30;90.50;;;;;;5055467;28;20388;-77
2021/03/25 03:30:34;;;;;;;38.97;20.05;;;12.30;90.40;;;;;;5059500;28;20029;-77
2021/03/25 03:33:19;;;;;;;40.40;19.20;;;12.30;90.40;;;;;;5059878;28;20024;-77
2021/03/25 03:35:58;;;;;;;40.83;20.38;;;12.30;90.50;;;;;;5054892;28;20091;-78
2021/03/25 03:38:45;;;;;;;41.47;20.33;;;12.30;90.50;;;;;;5057657;28;20025;-77
2021/03/25 03:41:14;;;;;;;39.85;19.85;;;12.20;90.50;;;;;;5052570;28;20122;-77
2021/03/25 03:43:42;;;;;;;41.08;21.10;;;12.20;91.10;;;;;;5054467;28;20132;-77
2021/03/25 03:46:16;;;;;;;43.65;21.15;;;12.20;90.90;;;;;;5055424;28;20028;-78
2021/03/25 03:48:50;;;;;;;43.95;20.70;;;12.20;90.90;;;;;;5055432;28;20032;-77
2021/03/25 03:51:30;;;;;;;41.53;21.05;;;12.20;90.90;;;;;;5056954;28;20028;-77
2021/03/25 03:53:58;;;;;;;41.45;20.98;;;12.20;91.10;;;;;;5053053;28;20041;-77
2021/03/25 03:56:28;;;;;;;41.47;20.70;;;12.30;91.20;;;;;;5055383;28;20048;-77
2021/03/25 03:58:57;;;;;;;41.78;20.85;;;12.30;91.40;;;;;;5058147;28;20031;-77
2021/03/25 04:01:26;;;;;;;39.30;19.95;;;12.30;91.60;;;;;;5054097;28;20025;-77
2021/03/25 04:04:00;;;;;;;45.58;21.52;;;12.30;91.70;;;;;;5055107;28;20060;-77
2021/03/25 04:06:35;;;;;;;46.72;21.17;;;12.30;91.80;;;;;;5053042;28;20032;-78
2021/03/25 04:09:04;;;;;;;40.60;22.02;;;12.40;92.10;;;;;;5054439;28;20040;-78
2021/03/25 04:11:42;;;;;;;46.33;22.42;;;12.40;92.20;;;;;;5055575;28;20483;-77
2021/03/25 04:14:20;;;;;;;56.80;22.38;;;12.40;92.50;;;;;;5055192;28;20036;-78
2021/03/25 04:16:46;;;;;;;48.00;22.15;;;12.40;92.80;;;;;;5056566;28;20504;-78
2021/03/25 04:19:21;;;;;;;39.90;22.58;;;12.40;93.00;;;;;;5051618;28;20424;-78
2021/03/25 04:22:01;;;;;;;49.28;23.90;;;12.40;93.20;;;;;;5055904;28;20028;-77
2021/03/25 04:24:30;;;;;;;51.13;23.70;;;12.40;93.60;;;;;;5054447;28;20043;-78
2021/03/25 04:27:05;;;;;;;50.55;24.15;;;12.40;93.40;;;;;;5056010;28;20032;-77
2021/03/25 04:29:45;;;;;;;53.83;24.25;;;12.40;93.70;;;;;;5057739;28;20028;-78
2021/03/25 04:32:11;;;;;;;51.03;24.88;;;12.40;93.80;;;;;;5054740;28;20040;-77
2021/03/25 04:34:37;;;;;;;46.20;23.00;;;12.40;94.20;;;;;;5057467;28;20948;-77
2021/03/25 04:37:05;;;;;;;48.58;24.70;;;12.40;94.40;;;;;;5067816;28;20032;-78
2021/03/25 04:39:31;;;;;;;48.47;24.30;;;12.40;94.50;;;;;;5055670;28;20025;-77
2021/03/25 04:41:57;;;;;;;54.00;26.15;;;12.40;94.90;;;;;;5051899;28;20488;-78
2021/03/25 04:44:36;;;;;;;53.20;26.17;;;12.40;95.00;;;;;;5055079;28;20395;-77
2021/03/25 04:47:19;;;;;;;48.17;24.48;;;12.40;95.20;;;;;;5054556;28;20037;-77
2021/03/25 04:49:53;;;;;;;48.25;25.20;;;12.40;95.50;;;;;;5053493;28;20492;-78
2021/03/25 04:52:23;;;;;;;57.67;26.35;;;12.40;95.60;;;;;;5056735;28;20444;-78
2021/03/25 04:54:48;;;;;;;46.63;25.50;;;12.40;95.80;;;;;;5071051;28;20535;-77
2021/03/25 04:57:38;;;;;;;53.13;25.92;;;12.40;96.10;;;;;;5055343;28;20025;-77
2021/03/25 05:00:10;;;;;;;49.22;25.50;;;12.40;96.40;;;;;;5056418;28;20032;-77
2021/03/25 05:02:37;;;;;;;50.33;26.55;;;12.40;96.30;;;;;;5054730;28;20032;-78
2021/03/25 05:05:04;;;;;;;56.85;26.25;;;12.40;96.60;;;;;;5044074;28;20453;-77
2021/03/25 05:07:34;;;;;;;55.42;25.58;;;12.40;96.60;;;;;;5053702;28;20697;-78
2021/03/25 05:10:00;;;;;;;56.45;26.80;;;12.40;97.10;;;;;;5053674;28;20040;-77
2021/03/25 05:12:26;;;;;;;49.92;25.88;;;12.40;97.40;;;;;;5056454;28;20021;-77
2021/03/25 05:15:04;;;;;;;47.90;24.90;;;12.40;97.60;;;;;;5053228;28;20037;-78
2021/03/25 05:18:11;;;;;;;59.00;27.38;;;12.30;98.10;;;;;;5055381;28;20036;-78
2021/03/25 05:21:11;;;;;;;57.30;27.45;;;12.30;98.50;;;;;;5060390;28;20051;-78
2021/03/25 05:23:58;;;;;;;58.75;27.73;;;12.30;98.80;;;;;;5054356;28;20037;-78
2021/03/25 05:26:29;;;;;;;59.97;28.00;;;12.30;99.00;;;;;;5052307;28;20047;-77
2021/03/25 05:29:02;;;;;;;53.53;26.52;;;12.40;99.40;;;;;;5051839;28;20080;-79
2021/03/25 05:31:31;;;;;;;53.58;27.73;;;12.40;99.50;;;;;;5054294;28;20082;-79
2021/03/25 05:34:02;;;;;;;64.15;28.35;;;12.40;99.90;;;;;;5053578;28;20033;-78
2021/03/25 05:36:33;;;;;;;58.05;26.92;;;12.40;99.90;;;;;;5056290;28;20487;-77
2021/03/25 05:38:59;;;;;;;55.13;26.65;;;12.40;99.90;;;;;;5053494;28;20112;-79
2021/03/25 05:42:02;;;;;;;58.03;27.20;;;12.40;99.90;;;;;;5056866;28;20929;-78
2021/03/25 05:44:40;;;;;;;56.50;27.58;;;12.40;99.90;;;;;;5044864;28;20082;-77
2021/03/25 05:47:53;;;;;;;62.65;29.52;;;12.40;99.90;;;;;;5054134;28;20033;-77
2021/03/25 05:50:48;;;;;;;60.08;29.55;;;12.40;99.90;;;;;;5012520;28;20044;-78
2021/03/25 05:53:41;;;;;;;60.45;29.30;;;12.40;99.90;;;;;;5014128;28;20064;-77
2021/03/25 05:56:48;;;;;;;68.38;29.95;;;12.40;99.90;;;;;;5013578;28;20041;-76
2021/03/25 05:59:17;;;;;;;67.20;30.75;;;12.40;99.90;;;;;;4939531;28;20127;-77
2021/03/25 06:02:00;;;;;;;62.30;28.75;;;12.40;99.90;;;;;;4941326;28;20058;-79
2021/03/25 06:04:35;;;;;;;68.38;29.92;;;12.30;99.90;;;;;;4938141;28;20047;-77
2021/03/25 06:07:15;;;;;;;65.05;30.02;;;12.30;99.90;;;;;;4940546;28;20078;-78
2021/03/25 06:09:58;;;;;;;64.07;30.13;;;12.40;99.90;;;;;;4940176;28;20042;-77
2021/03/25 06:12:24;;;;;;;58.42;30.17;;;12.40;99.90;;;;;;4943222;28;20050;-78
2021/03/25 06:15:10;;;;;;;55.67;27.83;;;12.40;99.90;;;;;;4942676;28;21137;-78
2021/03/25 06:18:13;;;;;;;59.42;28.40;;;12.40;99.90;;;;;;4943405;28;20542;-77
2021/03/25 06:20:41;;;;;;;65.38;29.17;;;12.40;99.90;;;;;;4942680;28;20035;-76
2021/03/25 06:23:34;;;;;;;54.30;28.05;;;12.40;99.90;;;;;;4947667;28;20615;-76
2021/03/25 06:26:37;;;;;;;56.15;28.30;;;12.40;99.90;;;;;;4983838;28;20530;-77
2021/03/25 06:29:09;;;;;;;60.78;28.25;;;12.40;99.90;;;;;;4980033;28;20169;-76
2021/03/25 06:31:52;;;;;;;63.63;28.42;;;12.40;99.90;;;;;;4983072;28;20564;-76
2021/03/25 06:34:24;;;;;;;53.47;27.60;;;12.40;99.90;;;;;;5051796;28;20134;-76
2021/03/25 06:36:58;;;;;;;61.92;28.92;;;12.40;99.90;;;;;;5054150;28;20032;-78
2021/03/25 06:39:30;;;;;;;63.00;29.38;;;12.40;99.90;;;;;;5057294;28;20020;-77
2021/03/25 06:42:07;;;;;;;54.90;27.92;;;12.40;99.90;;;;;;5057875;28;20037;-77
2021/03/25 06:44:35;;;;;;;54.80;28.38;;;12.50;99.90;;;;;;5065702;28;20466;-77
2021/03/25 06:47:10;;;;;;;52.42;26.88;;;12.50;99.90;;;;;;5053235;28;20037;-77
2021/03/25 06:49:46;;;;;;;54.63;27.10;;;12.50;99.90;;;;;;5057357;28;20028;-77
2021/03/25 06:52:24;;;;;;;60.78;28.60;;;12.50;99.90;;;;;;5052975;28;20075;-79
2021/03/25 06:54:53;;;;;;;60.17;28.90;;;12.50;99.90;;;;;;5056333;28;21707;-79
2021/03/25 06:57:20;;;;;;;62.78;31.65;;;12.60;99.90;;;;;;5053939;28;21105;-78
2021/03/25 06:59:47;;;;;;;60.95;30.58;;;12.60;99.90;;;;;;5051526;28;20484;-78
2021/03/25 07:02:24;;;;;;;59.25;30.70;;;12.60;99.90;;;;;;5058342;28;20063;-78
2021/03/25 07:04:52;;;;;;;59.03;29.75;;;12.70;99.90;;;;;;5052918;28;20471;-76
2021/03/25 07:07:39;;;;;;;56.22;29.40;;;12.70;99.90;;;;;;5057089;28;20060;-74
2021/03/25 07:10:07;;;;;;;63.63;30.08;;;12.80;99.90;;;;;;5052095;28;20102;-76
2021/03/25 07:12:36;;;;;;;54.85;28.83;;;12.80;99.90;;;;;;5066940;28;20089;-75
2021/03/25 07:15:06;;;;;;;58.50;29.25;;;12.80;99.90;;;;;;5058886;28;20017;-75
2021/03/25 07:17:41;;;;;;;63.53;28.90;;;12.80;99.90;;;;;;5054353;28;20132;-75
2021/03/25 07:20:33;;;;;;;57.20;29.58;;;12.80;99.90;;;;;;5071434;28;20162;-74
2021/03/25 07:23:02;;;;;;;58.30;27.58;;;12.80;99.90;;;;;;5054841;28;20119;-77
2021/03/25 07:25:32;;;;;;;61.70;29.13;;;12.90;99.90;;;;;;5047049;28;20033;-79
2021/03/25 07:27:59;;;;;;;60.50;29.83;;;13.00;99.90;;;;;;5073285;28;20535;-76
2021/03/25 07:30:26;;;;;;;57.10;29.52;;;13.00;99.90;;;;;;5051105;28;20126;-77
2021/03/25 07:32:55;;;;;;;59.63;29.23;;;13.00;99.90;;;;;;5060765;28;20032;-79
2021/03/25 07:35:35;;;;;;;62.45;28.38;;;13.00;99.90;;;;;;5064636;28;20021;-79
2021/03/25 07:38:16;;;;;;;59.40;29.27;;;13.10;99.90;;;;;;5083921;28;20029;-77
2021/03/25 07:40:43;;;;;;;64.57;29.88;;;13.10;99.90;;;;;;5064432;28;20029;-78
2021/03/25 07:43:21;;;;;;;53.97;28.33;;;13.20;99.90;;;;;;5052008;28;20037;-76
2021/03/25 07:45:46;;;;;;;63.45;30.67;;;13.20;99.90;;;;;;5065813;28;20021;-78
2021/03/25 07:48:15;;;;;;;276.58;159.13;;;13.30;99.90;;;;;;5056062;28;20028;-83
2021/03/25 07:50:41;;;;;;;60.63;33.17;;;13.30;99.90;;;;;;5055552;28;20134;-76
2021/03/25 07:53:17;;;;;;;55.05;27.15;;;13.30;99.90;;;;;;5056734;28;20087;-77
2021/03/25 07:55:43;;;;;;;53.63;28.52;;;13.30;99.90;;;;;;5053772;28;20023;-77
2021/03/25 07:58:17;;;;;;;59.88;27.52;;;13.30;99.90;;;;;;5056945;28;20120;-76
2021/03/25 08:00:43;;;;;;;57.10;28.00;;;13.30;99.90;;;;;;5051697;28;20033;-77
2021/03/25 08:03:21;;;;;;;49.40;26.42;;;13.30;99.90;;;;;;5056572;28;20035;-75
2021/03/25 08:05:49;;;;;;;56.97;28.23;;;13.30;99.90;;;;;;5053819;28;20055;-75
2021/03/25 08:08:34;;;;;;;55.40;28.65;;;13.30;99.90;;;;;;5053273;28;20645;-76
2021/03/25 08:11:21;;;;;;;65.28;30.50;;;13.30;99.90;;;;;;5056839;28;20029;-76
2021/03/25 08:13:53;;;;;;;50.67;23.98;;;13.30;99.90;;;;;;5054858;28;20028;-75
2021/03/25 08:16:20;;;;;;;47.88;24.30;;;13.30;99.90;;;;;;5056115;28;20024;-77
2021/03/25 08:19:21;;;;;;;47.15;23.13;;;13.30;99.90;;;;;;5049720;28;20040;-76
2021/03/25 08:21:55;;;;;;;43.00;22.30;;;13.20;99.90;;;;;;5052905;28;20023;-74
2021/03/25 08:24:39;;;;;;;46.97;24.08;;;13.20;99.90;;;;;;5054109;28;20025;-75
2021/03/25 08:27:43;;;;;;;45.47;22.55;;;13.20;99.90;;;;;;5053190;28;20029;-76
2021/03/25 08:30:23;;;;;;;47.20;24.15;;;13.20;99.90;;;;;;5054585;28;20040;-79
2021/03/25 08:33:18;;;;;;;47.75;23.30;;;13.20;99.90;;;;;;5052212;28;20111;-77
2021/03/25 08:36:19;;;;;;;43.65;23.55;;;13.20;99.90;;;;;;5068686;28;20457;-77
2021/03/25 08:39:13;;;;;;;49.05;24.13;;;13.30;99.90;;;;;;5045948;28;20039;-75
2021/03/25 08:41:50;;;;;;;42.92;23.40;;;13.30;99.90;;;;;;5053092;28;20419;-75
2021/03/25 08:44:24;;;;;;;43.20;24.13;;;13.30;99.90;;;;;;5051977;28;20021;-77
2021/03/25 08:46:55;;;;;;;48.08;25.55;;;13.40;99.90;;;;;;5053288;28;20113;-77
2021/03/25 08:49:28;;;;;;;60.20;24.63;;;13.40;99.90;;;;;;5055015;28;20042;-75
2021/03/25 08:51:56;;;;;;;43.47;23.77;;;13.40;99.90;;;;;;5051842;28;20111;-75
2021/03/25 08:54:32;;;;;;;47.13;24.48;;;13.50;99.90;;;;;;5049627;28;20051;-76
2021/03/25 08:57:05;;;;;;;50.08;24.85;;;13.50;99.90;;;;;;5048726;28;20032;-76
2021/03/25 08:59:35;;;;;;;45.17;23.70;;;13.50;99.90;;;;;;5055140;28;20028;-76
2021/03/25 09:02:04;;;;;;;44.27;22.73;;;13.60;99.90;;;;;;5050673;28;20037;-76
2021/03/25 09:04:36;;;;;;;44.28;22.33;;;13.60;99.90;;;;;;5054395;28;20663;-75
2021/03/25 09:07:05;;;;;;;42.47;24.30;;;13.70;99.90;;;;;;5053413;28;20013;-75
2021/03/25 09:09:43;;;;;;;38.88;21.90;;;13.70;99.90;;;;;;5052933;28;20036;-74
2021/03/25 09:12:32;;;;;;;42.15;22.80;;;13.80;99.90;;;;;;5055664;28;20189;-76
2021/03/25 09:14:59;;;;;;;40.47;22.08;;;13.90;99.90;;;;;;5050345;28;20419;-76
2021/03/25 09:17:37;;;;;;;48.88;23.83;;;14.00;99.90;;;;;;5053750;28;20032;-75
2021/03/25 09:20:12;;;;;;;42.70;23.75;;;14.00;99.90;;;;;;5051388;28;20047;-76
2021/03/25 09:22:44;;;;;;;150.35;82.65;;;14.00;99.90;;;;;;5048777;28;20032;-77
2021/03/25 09:25:19;;;;;;;47.30;24.33;;;13.80;99.90;;;;;;5055368;28;20037;-76
2021/03/25 09:28:08;;;;;;;41.50;24.48;;;13.70;99.90;;;;;;5051790;28;20116;-74
2021/03/25 09:30:39;;;;;;;49.17;24.27;;;13.70;99.90;;;;;;5054274;28;20063;-73
2021/03/25 09:33:35;;;;;;;45.65;23.90;;;13.60;99.90;;;;;;5050300;28;20051;-73
2021/03/25 09:36:02;;;;;;;44.78;22.98;;;13.60;99.90;;;;;;5052957;28;20094;-74
2021/03/25 09:38:32;;;;;;;43.42;23.88;;;13.50;99.90;;;;;;5049883;28;20402;-74
2021/03/25 09:41:02;;;;;;;42.25;23.60;;;13.60;99.90;;;;;;5044523;28;20022;-74
2021/03/25 09:43:41;;;;;;;51.63;24.05;;;13.50;99.90;;;;;;5051727;28;20407;-73
2021/03/25 09:46:26;;;;;;;43.90;23.60;;;13.60;99.90;;;;;;5051729;28;20051;-74
2021/03/25 09:48:54;;;;;;;47.20;24.77;;;13.60;99.90;;;;;;5053953;28;20031;-73
2021/03/25 09:51:25;;;;;;;44.83;25.60;;;13.60;99.90;;;;;;5053902;28;20025;-72
2021/03/25 09:53:56;;;;;;;48.97;24.60;;;13.60;99.90;;;;;;5052683;28;20961;-73
2021/03/25 09:56:27;;;;;;;47.58;25.33;;;13.70;99.90;;;;;;5055146;28;20507;-74
2021/03/25 09:58:53;;;;;;;44.83;24.27;;;13.70;99.90;;;;;;5052193;28;20498;-73
2021/03/25 10:01:47;;;;;;;47.08;24.13;;;13.70;99.90;;;;;;5057745;28;20084;-73
2021/03/25 10:04:32;;;;;;;41.08;24.08;;;13.60;99.90;;;;;;5054878;28;20179;-74
2021/03/25 10:07:09;;;;;;;38.58;23.30;;;13.50;99.90;;;;;;5056364;28;21122;-72
2021/03/25 10:09:47;;;;;;;41.35;22.42;;;13.50;99.90;;;;;;5055533;28;20045;-73
2021/03/25 10:12:14;;;;;;;38.88;21.45;;;13.40;99.90;;;;;;5055021;28;20043;-73
2021/03/25 10:14:51;;;;;;;37.78;20.08;;;13.40;99.90;;;;;;5055459;28;20041;-74
2021/03/25 10:17:43;;;;;;;38.35;22.50;;;13.40;99.90;;;;;;5055543;28;20031;-72
2021/03/25 10:20:10;;;;;;;;;;;13.50;99.90;;;;;;5058012;28;20075;-73
2021/03/25 10:22:35;;;;;;;28.70;18.38;;;13.60;99.90;;;;;;5054111;28;19909;-73
2021/03/25 10:25:01;;;;;;;30.88;17.42;;;13.60;99.90;;;;;;5056478;28;20025;-73
2021/03/25 10:27:34;;;;;;;26.15;16.27;;;13.50;99.90;;;;;;5056432;28;20075;-74
2021/03/25 10:30:24;;;;;;;29.10;16.83;;;13.40;99.90;;;;;;5055505;28;20025;-74
2021/03/25 10:32:52;;;;;;;22.65;15.32;;;13.40;99.90;;;;;;5056224;28;20037;-74
2021/03/25 10:35:24;;;;;;;22.08;15.63;;;13.40;99.90;;;;;;5054155;28;20036;-74
2021/03/25 10:37:53;;;;;;;23.65;14.77;;;13.40;99.90;;;;;;5054577;28;20029;-74
2021/03/25 10:40:36;;;;;;;22.20;14.25;;;13.50;99.90;;;;;;5054076;28;20051;-76
2021/03/25 10:43:01;;;;;;;20.13;12.98;;;13.60;99.90;;;;;;5055022;28;20745;-75
2021/03/25 10:45:48;;;;;;;20.75;14.00;;;13.70;99.90;;;;;;5056915;28;20033;-79
2021/03/25 10:48:35;;;;;;;20.67;13.80;;;13.70;99.90;;;;;;5060375;28;20025;-73
2021/03/25 10:51:13;;;;;;;20.75;11.75;;;13.70;99.90;;;;;;5053219;28;20157;-78
2021/03/25 10:53:52;;;;;;;20.13;12.85;;;13.70;99.90;;;;;;5053813;28;20036;-73
2021/03/25 10:56:37;;;;;;;16.92;12.10;;;13.70;99.90;;;;;;5054817;28;20024;-74
2021/03/25 10:59:11;;;;;;;20.63;12.75;;;13.60;99.90;;;;;;5055265;28;20024;-74
2021/03/25 11:01:46;;;;;;;18.08;13.25;;;13.60;99.90;;;;;;5054531;28;20173;-73
2021/03/25 11:04:18;;;;;;;19.92;12.80;;;13.50;99.90;;;;;;5053282;28;20045;-74
2021/03/25 11:06:45;;;;;;;17.83;11.93;;;13.50;99.90;;;;;;5055167;28;20043;-73
2021/03/25 11:09:29;;;;;;;19.52;12.77;;;13.30;99.90;;;;;;5054506;28;20082;-74
2021/03/25 11:12:19;;;;;;;20.73;12.30;;;13.40;99.90;;;;;;5053104;28;20095;-74
2021/03/25 11:14:56;;;;;;;20.48;12.65;;;13.50;99.90;;;;;;5054918;28;20126;-73
2021/03/25 11:17:32;;;;;;;17.92;12.00;;;13.60;99.90;;;;;;5054706;28;20112;-74
2021/03/25 11:20:07;;;;;;;19.75;12.55;;;13.70;99.90;;;;;;5055276;28;20024;-73
2021/03/25 11:22:34;;;;;;;20.55;13.15;;;13.60;99.90;;;;;;5053238;28;20025;-74
2021/03/25 11:25:03;;;;;;;18.65;12.57;;;13.50;99.90;;;;;;5053893;28;20035;-74
2021/03/25 11:27:29;;;;;;;21.45;13.40;;;13.40;99.90;;;;;;5054195;28;20030;-74
2021/03/25 11:30:08;;;;;;;24.42;13.85;;;13.40;99.90;;;;;;5052045;28;20086;-73
2021/03/25 11:32:35;;;;;;;22.73;13.45;;;13.40;99.90;;;;;;5053688;28;20044;-73
2021/03/25 11:35:34;;;;;;;21.77;13.45;;;13.50;99.90;;;;;;5070079;28;20025;-73
2021/03/25 11:38:25;;;;;;;21.75;13.85;;;13.40;99.90;;;;;;5052449;28;20035;-74
2021/03/25 11:40:53;;;;;;;23.67;14.48;;;13.40;99.90;;;;;;5053409;28;20021;-73
2021/03/25 11:43:23;;;;;;;23.50;14.85;;;13.30;99.90;;;;;;5067239;28;20495;-73
2021/03/25 11:45:51;;;;;;;25.55;14.60;;;13.20;99.90;;;;;;5055029;28;20036;-73
2021/03/25 11:48:29;;;;;;;24.35;14.10;;;13.30;99.90;;;;;;5052026;28;20123;-73
2021/03/25 11:51:14;;;;;;;28.50;15.27;;;13.30;99.90;;;;;;5053363;28;20096;-73
2021/03/25 11:53:46;;;;;;;26.90;15.88;;;13.40;99.90;;;;;;5052521;28;20044;-73
2021/03/25 11:56:26;;;;;;;29.90;15.82;;;13.50;99.90;;;;;;5046654;28;20036;-73
2021/03/25 11:59:13;;;;;;;28.50;15.63;;;13.50;99.90;;;;;;5052610;28;20404;-73
2021/03/25 12:01:39;;;;;;;30.00;16.13;;;13.50;99.90;;;;;;5054666;28;21188;-74
2021/03/25 12:04:23;;;;;;;31.63;16.15;;;13.50;99.90;;;;;;5057345;28;20044;-73
2021/03/25 12:06:58;;;;;;;31.55;17.17;;;13.50;99.90;;;;;;5061842;28;20085;-74
2021/03/25 12:09:23;;;;;;;30.58;15.80;;;13.50;99.90;;;;;;5062377;28;20020;-73
2021/03/25 12:11:51;;;;;;;35.92;16.95;;;13.50;99.90;;;;;;5056114;28;20037;-76
2021/03/25 12:14:20;;;;;;;101.38;51.08;;;13.60;99.90;;;;;;5057951;28;20484;-81
2021/03/25 12:16:51;;;;;;;32.72;17.20;;;13.70;99.90;;;;;;5056137;28;20040;-74
2021/03/25 12:19:18;;;;;;;33.38;17.20;;;13.70;99.90;;;;;;5058014;28;20103;-73
2021/03/25 12:21:43;;;;;;;37.20;18.77;;;13.80;99.90;;;;;;5059455;28;20024;-74
2021/03/25 12:24:13;;;;;;;35.72;18.35;;;13.90;99.90;;;;;;5060512;28;20020;-77
2021/03/25 12:26:38;;;;;;;33.17;17.85;;;14.00;99.90;;;;;;5058634;28;20106;-73
2021/03/25 12:29:04;;;;;;;34.10;19.27;;;14.10;99.90;;;;;;5061506;28;20040;-74
2021/03/25 12:31:33;;;;;;;38.50;18.88;;;14.20;99.90;;;;;;5059168;28;20096;-74
2021/03/25 12:34:00;;;;;;;38.40;19.58;;;14.30;99.90;;;;;;5065393;28;20108;-74
2021/03/25 12:36:26;;;;;;;35.47;19.25;;;14.30;99.90;;;;;;5062832;28;20031;-73
2021/03/25 12:38:53;;;;;;;35.00;17.73;;;14.50;99.90;;;;;;5053854;28;20119;-73
2021/03/25 12:41:31;;;;;;;35.13;17.98;;;14.60;99.90;;;;;;5053292;28;20028;-73
2021/03/25 12:43:57;;;;;;;27.55;16.55;;;14.70;99.90;;;;;;5066196;28;21120;-73
2021/03/25 12:46:23;;;;;;;30.98;16.98;;;14.90;99.90;;;;;;5054071;28;20036;-73
2021/03/25 12:48:48;;;;;;;30.55;16.23;;;15.00;99.90;;;;;;5054623;28;20035;-74
2021/03/25 12:51:15;;;;;;;29.15;16.33;;;15.20;99.90;;;;;;5053912;28;20056;-74
2021/03/25 12:53:42;;;;;;;26.98;17.00;;;15.30;99.90;;;;;;5051553;28;20103;-74
2021/03/25 12:56:19;;;;;;;30.40;16.48;;;15.30;99.90;;;;;;5051650;28;20029;-74
2021/03/25 12:58:44;;;;;;;32.55;15.35;;;15.50;99.90;;;;;;5053649;28;20020;-73
2021/03/25 13:01:13;;;;;;;25.75;14.95;;;15.50;99.90;;;;;;5054458;28;20037;-74
2021/03/25 13:03:40;;;;;;;23.40;12.18;;;15.70;99.90;;;;;;5050402;28;20412;-74
2021/03/25 13:06:07;;;;;;;19.48;12.77;;;15.70;99.90;;;;;;5053999;28;20522;-73